עמוד ראשי
METAR-TAF:

METAR-TAF

שדות תעופה :

סיודאד חוארס, מקסיקו

קו רוחב: 31-38N, קו אורך: 106-26W, גובה: 1171מטר

תצפית מזג אוויר נוכחית

הדו"ח נערך לפני 9 שעות ו 22דקות, בשעה 02:42 UTC
רוח 3קשר מכיוון דרום
טמפרטורת 31 צלסיוס
לחות 22%
לחץ 1023 hPa
ראות: 16.1קילומטר
שמיים נקיים

METAR: MMCS 250242Z 17003KT 10SM SKC 31/07 A3020 RMK SLP105 55000 913

זמן: 06:04 (12:04 UTC)

תחזית

הדו"ח נערך לפני 6 שעות ו 28דקות, בשעה 05:36 UTC
תחזית בתוקף מ 25 ב 06 UTC עד 26 ב 06 UTC
רוח 5קשר מכיוון דרום
ראות: 10קילומטר
שמיים נקיים
מ 25 ב 1600UTC
רוח 10קשר מכיוון מערב/דרום-מערב
ראות: 10קילומטר
שמיים נקיים
מ 26 ב 0200UTC
רוח 5קשר מכיוון מערב
ראות: 10קילומטר
עננים פזורים בגובה 4000רגל

TAF: MMCS 250536Z 2506/2606 17005KT P6SM SKC FM251600 24010KT P6SM SKC FM260200 27005KT P6SM SCT040

תצפיות ותחזיות מזג אוויר לגבי יותר מ- 4,000 שדות תעופה ברחבי העולם. דוחות METAR ו- TAF.

התחנות הזמינות מסומנות בנקודות צהובות ואדומות על גבי המפה.

העבר את העכבר לנקודה הצבעונית על מנת לראות את שם התחנה.

לאחר מכן, לחץ כדי לראות את תוכן ואת תחזיות מזג האוויר.

כדי לשנות את המפה: לחץ על הכפתורים הירוקים עם הפלוס השחור כדי להתקרב; על הכפתור הירוק עם המקף כדי להתרחק; או בחיצים הירוקים למפות סמוכות.


METAR-TAF: